Time;durP1;ratioP1;P1;durP2;ratioP2;P2;SDS_P1;SDS_P2;PMS_P1;PMS_P2;Temp;Humidity;BMP_temperature;BMP_pressure;BME280_temperature;BME280_humidity;BME280_pressure;Samples;Min_cycle;Max_cycle;Signal;HPM_P1;HPM_P2
2023/11/02 00:01:50;;;;;;;1.67;1.27;;;21.90;59.00;;;;;;5055081;28;20175;-66
2023/11/02 00:04:16;;;;;;;2.00;1.43;;;21.90;59.00;;;;;;5055231;28;20406;-66
2023/11/02 00:06:46;;;;;;;2.00;1.13;;;21.90;59.00;;;;;;5055037;28;20437;-66
2023/11/02 00:09:15;;;;;;;1.20;1.00;;;21.90;59.00;;;;;;5054562;28;20217;-66
2023/11/02 00:11:55;;;;;;;1.67;1.30;;;21.90;59.00;;;;;;5054978;28;20512;-66
2023/11/02 00:14:22;;;;;;;1.13;0.97;;;21.90;59.00;;;;;;5054703;28;20903;-66
2023/11/02 00:16:48;;;;;;;2.40;1.20;;;21.90;59.00;;;;;;5054654;28;20465;-64
2023/11/02 00:19:37;;;;;;;1.80;1.30;;;21.90;59.00;;;;;;5054036;28;20440;-66
2023/11/02 00:22:07;;;;;;;1.97;1.20;;;21.90;59.00;;;;;;5055113;28;20460;-66
2023/11/02 00:24:40;;;;;;;1.57;1.30;;;21.90;59.00;;;;;;5054653;28;20484;-66
2023/11/02 00:27:07;;;;;;;1.80;1.07;;;21.90;59.00;;;;;;5054529;28;20416;-66
2023/11/02 00:29:33;;;;;;;1.50;1.20;;;21.90;59.60;;;;;;5054330;28;20443;-66
2023/11/02 00:31:59;;;;;;;1.47;1.00;;;21.90;59.00;;;;;;5054354;28;20414;-66
2023/11/02 00:34:27;;;;;;;2.00;1.40;;;21.90;59.00;;;;;;5054092;28;20256;-66
2023/11/02 00:36:54;;;;;;;2.53;1.70;;;21.90;59.10;;;;;;5053907;28;20178;-66
2023/11/02 00:39:20;;;;;;;1.60;1.40;;;21.90;59.00;;;;;;5054147;28;20507;-66
2023/11/02 00:41:47;;;;;;;1.77;1.07;;;21.90;59.00;;;;;;5054522;28;20418;-66
2023/11/02 00:44:13;;;;;;;1.50;1.13;;;21.90;59.00;;;;;;5054367;28;20178;-66
2023/11/02 00:46:39;;;;;;;1.20;1.10;;;21.90;59.00;;;;;;5054023;28;20436;-67
2023/11/02 00:49:13;;;;;;;1.47;1.20;;;21.90;59.00;;;;;;5054046;28;20413;-66
2023/11/02 00:51:39;;;;;;;2.00;1.50;;;21.90;59.00;;;;;;5054037;28;20398;-66
2023/11/02 00:54:06;;;;;;;2.33;1.40;;;21.90;59.00;;;;;;5054374;28;20449;-66
2023/11/02 00:56:37;;;;;;;1.73;1.20;;;21.90;59.00;;;;;;5052750;28;20212;-66
2023/11/02 00:59:04;;;;;;;1.80;1.00;;;21.90;59.00;;;;;;5054292;28;20905;-66
2023/11/02 01:01:31;;;;;;;1.30;1.10;;;21.90;59.00;;;;;;5054009;28;20405;-66
2023/11/02 01:04:26;;;;;;;1.43;0.90;;;21.90;59.00;;;;;;5052856;28;20417;-66
2023/11/02 01:06:51;;;;;;;1.43;1.00;;;21.90;59.00;;;;;;5050871;28;20496;-66
2023/11/02 01:09:17;;;;;;;1.30;1.13;;;21.90;59.00;;;;;;5053792;28;21043;-65
2023/11/02 01:11:44;;;;;;;1.20;0.90;;;21.90;59.00;;;;;;5053684;28;20210;-66
2023/11/02 01:14:43;;;;;;;1.70;1.10;;;21.90;59.00;;;;;;5053740;28;20198;-67
2023/11/02 01:17:24;;;;;;;1.50;1.03;;;21.90;59.00;;;;;;5053411;28;20393;-67
2023/11/02 01:19:57;;;;;;;2.20;1.10;;;21.90;59.00;;;;;;5053880;28;20393;-65
2023/11/02 01:22:29;;;;;;;1.80;1.20;;;21.80;58.90;;;;;;5053899;28;20392;-66
2023/11/02 01:25:05;;;;;;;2.27;1.40;;;21.90;59.00;;;;;;5054262;28;20482;-65
2023/11/02 01:27:31;;;;;;;1.63;1.17;;;21.90;59.00;;;;;;5053784;28;20819;-66
2023/11/02 01:29:57;;;;;;;1.67;1.20;;;21.80;59.00;;;;;;5053935;28;20412;-66
2023/11/02 01:32:22;;;;;;;1.67;1.00;;;21.90;59.00;;;;;;5053415;28;20175;-66
2023/11/02 01:34:48;;;;;;;1.40;1.17;;;21.80;59.00;;;;;;5052654;28;20444;-66
2023/11/02 01:37:14;;;;;;;1.70;1.00;;;21.80;59.00;;;;;;5054020;28;20223;-66
2023/11/02 01:39:45;;;;;;;1.27;1.10;;;21.80;58.90;;;;;;5057329;28;20167;-66
2023/11/02 01:42:24;;;;;;;1.60;1.27;;;21.90;59.00;;;;;;5056811;28;20654;-65
2023/11/02 01:45:10;;;;;;;2.40;1.40;;;21.90;59.00;;;;;;5057535;28;20504;-65
2023/11/02 01:47:43;;;;;;;1.80;1.40;;;21.90;59.00;;;;;;5057313;28;20781;-66
2023/11/02 01:50:27;;;;;;;1.20;0.90;;;21.90;59.00;;;;;;5057475;28;20481;-66
2023/11/02 01:53:00;;;;;;;1.30;1.00;;;21.90;59.10;;;;;;5057752;28;20444;-66
2023/11/02 01:56:02;;;;;;;1.33;1.07;;;21.80;59.00;;;;;;5057003;28;20927;-65
2023/11/02 01:59:09;;;;;;;1.47;1.10;;;21.90;59.10;;;;;;5057628;28;20464;-65
2023/11/02 02:01:52;;;;;;;1.83;1.73;;;21.80;59.60;;;;;;5056986;28;20412;-65
2023/11/02 02:04:29;;;;;;;1.40;1.03;;;21.80;59.00;;;;;;5057110;28;20846;-65
2023/11/02 02:07:18;;;;;;;1.40;1.10;;;21.80;59.00;;;;;;5056965;28;20381;-66
2023/11/02 02:10:03;;;;;;;1.30;1.20;;;21.80;59.00;;;;;;5057196;28;20769;-66
2023/11/02 02:12:49;;;;;;;1.97;1.23;;;21.80;59.00;;;;;;5056712;28;20413;-66
2023/11/02 02:15:31;;;;;;;1.17;1.07;;;21.80;59.00;;;;;;5056260;28;20544;-66
2023/11/02 02:18:08;;;;;;;2.47;1.27;;;21.80;59.00;;;;;;5056530;28;20811;-65
2023/11/02 02:20:37;;;;;;;1.33;1.10;;;21.80;59.00;;;;;;5056638;28;20398;-66
2023/11/02 02:23:11;;;;;;;1.57;1.20;;;21.80;59.10;;;;;;5056942;28;20416;-66
2023/11/02 02:26:07;;;;;;;1.00;0.90;;;21.80;59.00;;;;;;5054808;28;20447;-64
2023/11/02 02:29:04;;;;;;;1.30;1.10;;;21.80;59.00;;;;;;5056462;28;20489;-65
2023/11/02 02:31:51;;;;;;;2.10;1.43;;;21.80;59.00;;;;;;5056220;28;20787;-66
2023/11/02 02:34:31;;;;;;;1.83;1.13;;;21.80;59.00;;;;;;5056337;28;20601;-64
2023/11/02 02:37:06;;;;;;;2.43;1.30;;;21.80;59.00;;;;;;5056478;28;20393;-66
2023/11/02 02:39:37;;;;;;;1.93;1.40;;;21.80;59.00;;;;;;5056259;28;20483;-64
2023/11/02 02:42:03;;;;;;;1.43;1.27;;;21.80;59.60;;;;;;5056657;28;20862;-66
2023/11/02 02:44:31;;;;;;;1.80;1.30;;;21.80;59.00;;;;;;5055084;28;20413;-66
2023/11/02 02:47:02;;;;;;;2.40;1.53;;;21.80;59.00;;;;;;5056518;28;20406;-66
2023/11/02 02:49:37;;;;;;;1.33;1.00;;;21.80;59.00;;;;;;5055896;28;20394;-66
2023/11/02 02:52:07;;;;;;;2.50;1.30;;;21.80;59.00;;;;;;5056267;28;20904;-66
2023/11/02 02:54:38;;;;;;;1.40;1.00;;;21.80;59.00;;;;;;5055491;28;20541;-66
2023/11/02 02:57:07;;;;;;;2.87;1.10;;;21.80;58.90;;;;;;5056200;28;20386;-66
2023/11/02 02:59:39;;;;;;;1.23;1.10;;;21.80;58.90;;;;;;5055643;28;20401;-66
2023/11/02 03:02:07;;;;;;;1.30;1.00;;;21.80;58.90;;;;;;5055641;28;20405;-62
2023/11/02 03:04:34;;;;;;;1.60;1.23;;;21.80;58.90;;;;;;5055481;28;20788;-66
2023/11/02 03:07:01;;;;;;;1.33;0.97;;;21.80;58.90;;;;;;5055761;28;20413;-66
2023/11/02 03:09:31;;;;;;;1.10;0.90;;;21.80;58.90;;;;;;5055601;28;20406;-66
2023/11/02 03:12:03;;;;;;;1.50;1.00;;;21.80;58.90;;;;;;5054018;28;20417;-65
2023/11/02 03:14:30;;;;;;;1.57;1.20;;;21.80;58.90;;;;;;5055061;28;20472;-65
2023/11/02 03:17:04;;;;;;;1.40;1.30;;;21.80;59.00;;;;;;5055540;28;20417;-66
2023/11/02 03:19:44;;;;;;;1.60;1.20;;;21.80;59.00;;;;;;5054231;28;20402;-66
2023/11/02 03:22:12;;;;;;;3.17;1.30;;;21.80;58.90;;;;;;5055726;28;20378;-66
2023/11/02 03:24:57;;;;;;;1.60;0.90;;;21.80;59.00;;;;;;5055077;28;20505;-65
2023/11/02 03:28:01;;;;;;;2.20;1.30;;;21.80;59.00;;;;;;5055374;28;20390;-66
2023/11/02 03:30:35;;;;;;;1.70;1.10;;;21.80;58.90;;;;;;5055432;28;20854;-65
2023/11/02 03:33:24;;;;;;;1.57;1.07;;;21.80;59.00;;;;;;5054501;28;20536;-66
2023/11/02 03:36:18;;;;;;;1.63;1.10;;;21.80;59.00;;;;;;5044358;28;20562;-66
2023/11/02 03:38:58;;;;;;;1.90;1.30;;;21.80;59.00;;;;;;5055189;28;20453;-65
2023/11/02 03:41:42;;;;;;;2.23;1.23;;;21.80;59.00;;;;;;5055432;28;20396;-65
2023/11/02 03:44:13;;;;;;;1.40;1.30;;;21.80;59.10;;;;;;5055369;28;20919;-65
2023/11/02 03:47:09;;;;;;;1.40;1.10;;;21.80;59.00;;;;;;5054867;28;20443;-65
2023/11/02 03:49:48;;;;;;;2.00;1.03;;;21.80;59.00;;;;;;5055064;28;20413;-64
2023/11/02 03:52:26;;;;;;;1.37;1.10;;;21.80;59.00;;;;;;5054439;28;20393;-66
2023/11/02 03:55:04;;;;;;;1.47;1.00;;;21.80;59.00;;;;;;5053443;28;20434;-65
2023/11/02 03:57:47;;;;;;;1.20;0.90;;;21.80;59.00;;;;;;5054936;28;20392;-66
2023/11/02 04:00:15;;;;;;;1.77;1.27;;;21.80;58.90;;;;;;5054728;28;20382;-66
2023/11/02 04:02:48;;;;;;;1.93;1.30;;;21.80;58.90;;;;;;5055033;28;20933;-66
2023/11/02 04:05:20;;;;;;;2.10;0.93;;;21.80;58.90;;;;;;5054586;28;20825;-66
2023/11/02 04:07:56;;;;;;;2.00;1.13;;;21.80;59.00;;;;;;5053022;28;20417;-65
2023/11/02 04:10:25;;;;;;;1.50;1.10;;;21.80;58.90;;;;;;5054359;28;20487;-66
2023/11/02 04:13:34;;;;;;;1.50;1.30;;;21.80;58.90;;;;;;5053965;28;20460;-65
2023/11/02 04:15:59;;;;;;;1.37;1.10;;;21.80;58.90;;;;;;5053783;28;20433;-66
2023/11/02 04:18:25;;;;;;;1.83;1.20;;;21.80;59.00;;;;;;5053804;28;20444;-66
2023/11/02 04:20:53;;;;;;;1.20;1.10;;;21.70;58.90;;;;;;5053804;28;20225;-66
2023/11/02 04:23:25;;;;;;;1.40;1.10;;;21.80;59.00;;;;;;5053687;28;20183;-66
2023/11/02 04:25:54;;;;;;;1.50;1.03;;;21.80;58.90;;;;;;5054296;28;20449;-65
2023/11/02 04:28:20;;;;;;;1.20;1.10;;;21.80;58.90;;;;;;5045695;28;20438;-66
2023/11/02 04:30:47;;;;;;;1.60;1.30;;;21.80;58.90;;;;;;5052726;28;20425;-66
2023/11/02 04:33:13;;;;;;;1.47;1.17;;;21.80;58.90;;;;;;5052608;28;20974;-66
2023/11/02 04:35:40;;;;;;;1.10;0.93;;;21.80;58.90;;;;;;5050912;28;20786;-66
2023/11/02 04:38:07;;;;;;;2.00;1.20;;;21.80;58.90;;;;;;5052243;28;20787;-66
2023/11/02 04:40:34;;;;;;;1.23;0.90;;;21.80;58.90;;;;;;5051696;28;20497;-66
2023/11/02 04:43:01;;;;;;;1.70;1.40;;;21.80;58.90;;;;;;5051677;28;20416;-66
2023/11/02 04:45:29;;;;;;;2.20;1.20;;;21.80;58.90;;;;;;5053797;28;20436;-66
2023/11/02 04:47:56;;;;;;;1.73;1.20;;;21.80;58.90;;;;;;5053492;28;20433;-66
2023/11/02 04:50:22;;;;;;;1.30;1.00;;;21.80;58.90;;;;;;5053950;28;20405;-66
2023/11/02 04:52:51;;;;;;;1.27;1.10;;;21.80;58.90;;;;;;5053657;28;20452;-66
2023/11/02 04:55:17;;;;;;;1.20;0.90;;;21.80;59.00;;;;;;5053871;28;20936;-66
2023/11/02 04:57:43;;;;;;;2.60;1.40;;;21.80;58.90;;;;;;5053760;28;20463;-66
2023/11/02 05:00:09;;;;;;;1.57;1.23;;;21.80;58.90;;;;;;5053713;28;20441;-66
2023/11/02 05:02:35;;;;;;;1.43;1.30;;;21.80;58.90;;;;;;5053832;28;20190;-66
2023/11/02 05:05:01;;;;;;;2.00;1.20;;;21.80;58.90;;;;;;5053368;28;20453;-66
2023/11/02 05:07:26;;;;;;;1.10;0.90;;;21.80;58.90;;;;;;5053356;28;20179;-66
2023/11/02 05:09:52;;;;;;;1.37;1.20;;;21.70;58.80;;;;;;5053052;28;20550;-65
2023/11/02 05:12:18;;;;;;;2.53;1.60;;;21.80;58.90;;;;;;5053649;28;20186;-66
2023/11/02 05:14:43;;;;;;;1.60;1.27;;;21.80;58.90;;;;;;5053303;28;20203;-66
2023/11/02 05:17:09;;;;;;;1.80;1.10;;;21.80;58.90;;;;;;5053452;28;20167;-66
2023/11/02 05:19:37;;;;;;;1.80;1.33;;;21.70;58.80;;;;;;5053231;28;20202;-65
2023/11/02 05:22:03;;;;;;;1.30;1.00;;;21.70;58.80;;;;;;5052954;28;20788;-66
2023/11/02 05:24:29;;;;;;;3.00;1.50;;;21.80;58.90;;;;;;5053148;28;20506;-66
2023/11/02 05:26:54;;;;;;;1.60;1.10;;;21.80;58.90;;;;;;5053328;28;20896;-66
2023/11/02 05:29:21;;;;;;;1.83;1.10;;;21.70;58.80;;;;;;5052970;28;20263;-66
2023/11/02 05:31:47;;;;;;;1.23;1.00;;;21.80;58.90;;;;;;5052869;28;20170;-66
2023/11/02 05:34:13;;;;;;;1.10;0.90;;;21.70;58.90;;;;;;5053523;28;20451;-66
2023/11/02 05:36:38;;;;;;;1.50;1.10;;;21.70;58.90;;;;;;5052192;28;20441;-65
2023/11/02 05:39:05;;;;;;;1.43;1.20;;;21.80;58.90;;;;;;5053662;28;20225;-66
2023/11/02 05:41:31;;;;;;;1.10;0.90;;;21.70;58.90;;;;;;5053369;28;20167;-65
2023/11/02 05:43:57;;;;;;;1.77;1.20;;;21.70;58.90;;;;;;5053474;28;20943;-66
2023/11/02 05:46:23;;;;;;;1.40;1.10;;;21.70;58.90;;;;;;5052844;28;20436;-66
2023/11/02 05:48:48;;;;;;;2.23;1.00;;;21.70;58.90;;;;;;5053197;28;20185;-66
2023/11/02 05:51:14;;;;;;;1.33;1.13;;;21.70;58.90;;;;;;5052906;28;20175;-66
2023/11/02 05:53:40;;;;;;;1.30;1.00;;;21.80;58.90;;;;;;5053539;28;20198;-66
2023/11/02 05:56:06;;;;;;;3.63;1.10;;;21.70;58.90;;;;;;5053343;28;20206;-65
2023/11/02 05:58:31;;;;;;;1.20;0.90;;;21.70;58.90;;;;;;5053626;28;20916;-66
2023/11/02 06:00:57;;;;;;;1.20;0.90;;;21.80;58.90;;;;;;5053388;28;20405;-64
2023/11/02 06:03:24;;;;;;;2.00;1.27;;;21.70;58.90;;;;;;5053448;28;20175;-65
2023/11/02 06:05:50;;;;;;;1.20;0.90;;;21.80;59.00;;;;;;5053363;28;20800;-66
2023/11/02 06:08:15;;;;;;;1.40;1.03;;;21.70;58.90;;;;;;5052798;28;20401;-65
2023/11/02 06:10:41;;;;;;;1.30;1.10;;;21.70;58.90;;;;;;5052695;28;20429;-66
2023/11/02 06:13:07;;;;;;;1.40;1.00;;;21.80;58.90;;;;;;5052788;28;20301;-66
2023/11/02 06:15:32;;;;;;;1.33;1.10;;;21.80;59.00;;;;;;5053002;28;20195;-65
2023/11/02 06:17:58;;;;;;;1.30;1.10;;;21.70;58.90;;;;;;5052459;28;20195;-64
2023/11/02 06:20:23;;;;;;;1.33;0.90;;;21.70;58.90;;;;;;5052735;28;20178;-66
2023/11/02 06:22:49;;;;;;;1.20;1.10;;;21.80;58.90;;;;;;5053011;28;20179;-64
2023/11/02 06:25:15;;;;;;;1.47;1.27;;;21.70;58.80;;;;;;5056664;28;20242;-66
2023/11/02 06:27:42;;;;;;;1.60;1.00;;;21.70;58.90;;;;;;5056667;28;20270;-66
2023/11/02 06:30:09;;;;;;;1.43;0.80;;;21.70;58.90;;;;;;5056568;28;20449;-66
2023/11/02 06:32:35;;;;;;;2.53;1.23;;;21.70;58.80;;;;;;5056372;28;20551;-65
2023/11/02 06:35:00;;;;;;;1.10;1.00;;;21.70;58.80;;;;;;5056312;28;20987;-66
2023/11/02 06:37:26;;;;;;;1.27;0.97;;;21.70;58.80;;;;;;5056261;28;20224;-65
2023/11/02 06:39:51;;;;;;;1.30;1.10;;;21.80;58.90;;;;;;5056166;28;20534;-66
2023/11/02 06:42:17;;;;;;;1.43;1.20;;;21.80;58.90;;;;;;5056467;28;20174;-65
2023/11/02 06:44:43;;;;;;;1.30;1.10;;;21.80;58.90;;;;;;5056113;28;20309;-66
2023/11/02 06:47:15;;;;;;;1.53;1.00;;;21.80;58.90;;;;;;5054956;28;20183;-66
2023/11/02 06:49:41;;;;;;;1.30;1.00;;;21.80;58.90;;;;;;5056664;28;20995;-64
2023/11/02 06:52:07;;;;;;;1.47;1.03;;;21.80;58.80;;;;;;5056207;28;20409;-66
2023/11/02 06:54:33;;;;;;;1.03;0.80;;;21.80;58.80;;;;;;5056518;28;20199;-66
2023/11/02 06:57:00;;;;;;;1.60;1.10;;;21.80;58.80;;;;;;5055863;28;20171;-66
2023/11/02 06:59:26;;;;;;;1.47;1.20;;;21.80;58.80;;;;;;5055813;28;20673;-65
2023/11/02 07:01:53;;;;;;;1.20;1.00;;;21.80;58.80;;;;;;5056168;28;20509;-65
2023/11/02 07:04:19;;;;;;;2.10;1.20;;;21.80;58.80;;;;;;5056216;28;20179;-65
2023/11/02 07:06:46;;;;;;;1.30;1.10;;;21.80;58.80;;;;;;5056099;28;20516;-66
2023/11/02 07:09:11;;;;;;;1.40;1.10;;;21.80;58.90;;;;;;5056401;28;20425;-66
2023/11/02 07:11:37;;;;;;;1.37;1.10;;;21.80;58.90;;;;;;5055695;28;20424;-66
2023/11/02 07:14:02;;;;;;;1.20;1.10;;;21.80;58.90;;;;;;5055418;28;20191;-66
2023/11/02 07:16:28;;;;;;;1.30;1.10;;;21.80;58.90;;;;;;5053957;28;20191;-66
2023/11/02 07:18:56;;;;;;;1.50;1.10;;;21.80;58.90;;;;;;5055748;28;20187;-66
2023/11/02 07:21:22;;;;;;;1.00;0.80;;;21.80;59.50;;;;;;5055507;28;20537;-66
2023/11/02 07:23:49;;;;;;;1.60;1.20;;;21.80;58.90;;;;;;5055552;28;20409;-66
2023/11/02 07:26:15;;;;;;;1.50;1.00;;;21.80;58.90;;;;;;5055731;28;20207;-65
2023/11/02 07:28:41;;;;;;;1.30;1.03;;;21.80;58.90;;;;;;5055680;28;20409;-65
2023/11/02 07:31:08;;;;;;;1.10;0.87;;;21.90;59.00;;;;;;5055750;28;20943;-66
2023/11/02 07:33:39;;;;;;;2.33;1.30;;;21.90;58.90;;;;;;5055394;28;20191;-66
2023/11/02 07:36:12;;;;;;;3.00;1.60;;;21.80;58.80;;;;;;5053844;28;20802;-65
2023/11/02 07:38:38;;;;;;;2.20;1.40;;;21.90;58.70;;;;;;5055308;28;20390;-66
2023/11/02 07:41:07;;;;;;;1.30;1.20;;;21.80;58.70;;;;;;5053954;28;20844;-66
2023/11/02 07:43:33;;;;;;;1.97;1.20;;;21.80;58.70;;;;;;5055600;28;20428;-65
2023/11/02 07:45:59;;;;;;;1.40;1.30;;;21.80;58.70;;;;;;5054730;28;20770;-66
2023/11/02 07:48:24;;;;;;;1.10;1.00;;;21.80;58.60;;;;;;5055107;28;20421;-65
2023/11/02 07:50:50;;;;;;;2.53;1.60;;;21.80;58.60;;;;;;5055014;28;20199;-64
2023/11/02 07:53:17;;;;;;;1.50;1.20;;;21.80;58.50;;;;;;5054624;28;20677;-66
2023/11/02 07:55:43;;;;;;;2.17;1.43;;;21.90;58.50;;;;;;5054405;28;20209;-66
2023/11/02 07:58:09;;;;;;;1.97;1.20;;;21.80;58.50;;;;;;5054995;28;20908;-66
2023/11/02 08:00:34;;;;;;;2.80;1.50;;;21.80;58.50;;;;;;5054785;28;20236;-65
2023/11/02 08:03:00;;;;;;;1.37;1.27;;;21.80;58.60;;;;;;5054730;28;20178;-66
2023/11/02 08:05:26;;;;;;;1.63;1.10;;;21.90;58.70;;;;;;5054601;28;20307;-65
2023/11/02 08:07:51;;;;;;;1.87;1.17;;;21.80;58.60;;;;;;5054756;28;20183;-66
2023/11/02 08:10:17;;;;;;;4.17;1.30;;;21.80;58.60;;;;;;5054975;28;20236;-65
2023/11/02 08:12:42;;;;;;;2.03;1.20;;;21.90;58.60;;;;;;5054690;28;20217;-65
2023/11/02 08:15:08;;;;;;;1.93;1.50;;;21.80;58.60;;;;;;5052513;28;20198;-65
2023/11/02 08:17:34;;;;;;;1.57;1.13;;;21.80;58.60;;;;;;5056263;28;20197;-65
2023/11/02 08:20:00;;;;;;;1.60;1.30;;;21.80;58.60;;;;;;5057432;28;20410;-65
2023/11/02 08:22:25;;;;;;;1.87;1.10;;;21.80;59.10;;;;;;5057248;28;20183;-65
2023/11/02 08:24:51;;;;;;;1.47;1.00;;;21.80;58.60;;;;;;5058004;28;20207;-65
2023/11/02 08:27:16;;;;;;;3.40;2.40;;;21.80;58.60;;;;;;5057221;28;20233;-66
2023/11/02 08:29:42;;;;;;;1.27;1.10;;;21.80;58.50;;;;;;5056722;28;20175;-65
2023/11/02 08:32:07;;;;;;;1.63;1.20;;;21.80;58.50;;;;;;5057170;28;20191;-65
2023/11/02 08:34:33;;;;;;;1.70;1.30;;;21.80;58.50;;;;;;5057392;28;20285;-65
2023/11/02 08:36:59;;;;;;;1.23;1.03;;;21.80;58.50;;;;;;5057202;28;20171;-66
2023/11/02 08:39:24;;;;;;;3.30;1.30;;;21.80;58.50;;;;;;5057117;28;20202;-66
2023/11/02 08:41:50;;;;;;;1.40;1.20;;;21.80;58.50;;;;;;5057123;28;20242;-64
2023/11/02 08:44:15;;;;;;;3.00;1.43;;;21.80;59.10;;;;;;5057142;28;20189;-65
2023/11/02 08:46:41;;;;;;;1.60;1.27;;;21.80;58.60;;;;;;5055748;28;20210;-64
2023/11/02 08:49:06;;;;;;;2.17;1.40;;;21.80;58.50;;;;;;5057081;28;20175;-65
2023/11/02 08:51:33;;;;;;;1.60;1.23;;;21.80;58.50;;;;;;5056792;28;20187;-65
2023/11/02 08:53:59;;;;;;;1.37;1.23;;;21.80;58.50;;;;;;5055733;28;20258;-64
2023/11/02 08:56:24;;;;;;;1.80;1.53;;;21.80;59.10;;;;;;5056561;28;20502;-65
2023/11/02 08:58:51;;;;;;;2.13;1.30;;;21.80;58.60;;;;;;5056760;28;20500;-64
2023/11/02 09:01:20;;;;;;;1.50;1.20;;;21.80;58.60;;;;;;5056780;28;20252;-66
2023/11/02 09:03:46;;;;;;;1.67;1.20;;;21.80;58.50;;;;;;5065366;28;20814;-65
2023/11/02 09:06:11;;;;;;;1.63;1.17;;;21.80;58.60;;;;;;5055590;28;20457;-66
2023/11/02 09:08:37;;;;;;;1.93;1.20;;;21.80;58.60;;;;;;5076136;28;20201;-65
2023/11/02 09:11:04;;;;;;;2.10;1.00;;;21.80;58.70;;;;;;5075422;28;20185;-64
2023/11/02 09:13:31;;;;;;;1.57;1.20;;;21.80;58.70;;;;;;5075497;28;20983;-65
2023/11/02 09:15:57;;;;;;;2.33;1.47;;;21.80;58.70;;;;;;5075808;28;20458;-65
2023/11/02 09:18:22;;;;;;;2.20;1.53;;;21.80;58.60;;;;;;5076201;28;20447;-66
2023/11/02 09:20:49;;;;;;;4.43;1.70;;;21.80;58.70;;;;;;5074108;28;20417;-65
2023/11/02 09:23:18;;;;;;;4.63;1.63;;;21.80;57.80;;;;;;5076245;28;20213;-65
2023/11/02 09:25:46;;;;;;;3.03;1.87;;;21.80;57.60;;;;;;5075877;28;20436;-64
2023/11/02 09:28:13;;;;;;;5.17;2.90;;;21.80;57.50;;;;;;5075376;28;20454;-66
2023/11/02 09:30:41;;;;;;;3.63;2.00;;;21.80;57.30;;;;;;5072206;28;20448;-66
2023/11/02 09:33:06;;;;;;;1.80;1.30;;;21.80;57.20;;;;;;5055450;28;20457;-65
2023/11/02 09:35:32;;;;;;;2.83;1.50;;;21.80;57.60;;;;;;5045595;28;20823;-66
2023/11/02 09:37:58;;;;;;;2.60;1.37;;;21.80;57.90;;;;;;5052111;28;20171;-66
2023/11/02 09:40:24;;;;;;;3.20;1.70;;;21.80;58.10;;;;;;5052351;28;20721;-66
2023/11/02 09:42:50;;;;;;;2.30;1.67;;;21.80;58.30;;;;;;5056836;28;20317;-64
2023/11/02 09:45:17;;;;;;;2.03;1.40;;;21.80;58.40;;;;;;5056345;28;20425;-66
2023/11/02 09:47:43;;;;;;;2.00;1.70;;;21.80;58.40;;;;;;5056753;28;20912;-66
2023/11/02 09:50:09;;;;;;;1.97;1.77;;;21.80;58.50;;;;;;5056611;28;20426;-66
2023/11/02 09:52:35;;;;;;;2.17;1.77;;;21.80;58.50;;;;;;5055431;28;20421;-64
2023/11/02 09:55:02;;;;;;;1.90;1.30;;;21.80;58.50;;;;;;5056253;28;20236;-66
2023/11/02 09:57:30;;;;;;;1.97;1.77;;;21.80;58.50;;;;;;5056947;28;20413;-65
2023/11/02 09:59:57;;;;;;;2.20;1.30;;;21.90;58.60;;;;;;5059623;28;20500;-66
2023/11/02 10:02:24;;;;;;;1.53;1.30;;;21.90;58.60;;;;;;5057839;28;20835;-68
2023/11/02 10:04:49;;;;;;;1.87;1.17;;;21.90;58.60;;;;;;5057049;28;20795;-66
2023/11/02 10:07:16;;;;;;;2.90;1.50;;;21.90;58.60;;;;;;5057457;28;20409;-66
2023/11/02 10:09:42;;;;;;;2.73;1.50;;;21.90;59.10;;;;;;5058188;28;20592;-66
2023/11/02 10:12:08;;;;;;;1.60;1.50;;;21.90;58.60;;;;;;5056538;28;20790;-65
2023/11/02 10:14:35;;;;;;;2.40;1.47;;;21.90;58.60;;;;;;5057520;28;20474;-64
2023/11/02 10:17:04;;;;;;;1.90;1.30;;;22.00;58.70;;;;;;5056818;28;20187;-65
2023/11/02 10:19:33;;;;;;;1.50;1.30;;;21.90;58.60;;;;;;5057751;28;20795;-64
2023/11/02 10:21:59;;;;;;;1.97;1.40;;;22.00;58.70;;;;;;5057571;28;20401;-65
2023/11/02 10:24:29;;;;;;;2.20;1.60;;;22.00;58.70;;;;;;5056833;28;20398;-64
2023/11/02 10:26:55;;;;;;;1.57;1.40;;;22.00;58.70;;;;;;5055595;28;20499;-64
2023/11/02 10:29:22;;;;;;;2.40;1.60;;;22.00;58.70;;;;;;5057548;28;20442;-64
2023/11/02 10:31:52;;;;;;;1.87;1.40;;;22.00;58.70;;;;;;5057433;28;20422;-65
2023/11/02 10:34:18;;;;;;;3.93;1.33;;;22.00;58.70;;;;;;5057058;28;20197;-62
2023/11/02 10:36:44;;;;;;;2.20;1.43;;;22.00;58.70;;;;;;5056941;28;20432;-65
2023/11/02 10:39:10;;;;;;;1.27;1.17;;;22.00;58.70;;;;;;5056871;28;20202;-64
2023/11/02 10:41:35;;;;;;;1.50;1.27;;;22.00;58.70;;;;;;5056659;28;20783;-64
2023/11/02 10:44:05;;;;;;;1.83;1.37;;;22.00;58.70;;;;;;5042910;28;20437;-66
2023/11/02 10:46:33;;;;;;;1.70;1.30;;;22.10;58.80;;;;;;5038803;28;20211;-65
2023/11/02 10:49:00;;;;;;;1.90;1.53;;;22.10;58.80;;;;;;5038779;28;20430;-58
2023/11/02 10:51:30;;;;;;;1.80;1.40;;;22.10;58.80;;;;;;5053724;28;20771;-63
2023/11/02 10:54:02;;;;;;;1.83;1.67;;;22.10;58.80;;;;;;5055609;28;20457;-64
2023/11/02 10:56:42;;;;;;;1.83;1.20;;;22.10;58.80;;;;;;5054955;28;20452;-65
2023/11/02 10:59:10;;;;;;;2.23;1.20;;;22.10;58.80;;;;;;5056208;28;20410;-64
2023/11/02 11:01:37;;;;;;;3.10;1.67;;;22.10;58.70;;;;;;5056747;28;20424;-65
2023/11/02 11:04:04;;;;;;;2.37;1.50;;;22.10;58.70;;;;;;5054458;28;20433;-64
2023/11/02 11:06:30;;;;;;;1.40;1.30;;;22.10;58.70;;;;;;5056378;28;20449;-66
2023/11/02 11:08:59;;;;;;;1.83;1.10;;;22.10;58.70;;;;;;5055500;28;20409;-66
2023/11/02 11:11:27;;;;;;;2.50;1.37;;;22.20;58.80;;;;;;5054156;28;20897;-67
2023/11/02 11:13:54;;;;;;;2.17;1.40;;;22.20;58.80;;;;;;5046861;28;20456;-66
2023/11/02 11:16:20;;;;;;;5.63;1.50;;;22.20;58.80;;;;;;5045886;28;20454;-66
2023/11/02 11:18:48;;;;;;;2.27;1.83;;;22.20;58.80;;;;;;5045187;28;20928;-65
2023/11/02 11:21:20;;;;;;;3.50;1.67;;;22.20;58.80;;;;;;5046729;28;20413;-64
2023/11/02 11:23:46;;;;;;;2.30;1.70;;;22.20;58.80;;;;;;5046239;28;20418;-64
2023/11/02 11:26:12;;;;;;;3.23;1.50;;;22.20;58.80;;;;;;5044548;28;20450;-63
2023/11/02 11:28:38;;;;;;;2.17;1.70;;;22.20;58.80;;;;;;5046744;28;20193;-62
2023/11/02 11:31:10;;;;;;;2.10;1.63;;;22.20;58.80;;;;;;5045425;28;20786;-65
2023/11/02 11:33:45;;;;;;;1.80;1.60;;;22.20;58.80;;;;;;5042532;28;20458;-67
2023/11/02 11:36:22;;;;;;;2.07;1.13;;;22.30;58.90;;;;;;5043844;28;20978;-65
2023/11/02 11:38:49;;;;;;;4.17;1.80;;;22.30;58.90;;;;;;5045806;28;20406;-63
2023/11/02 11:41:44;;;;;;;4.07;1.80;;;22.30;58.90;;;;;;5044489;28;20414;-64
2023/11/02 11:44:16;;;;;;;4.30;2.57;;;22.30;58.90;;;;;;5045919;28;20402;-64
2023/11/02 11:46:52;;;;;;;2.80;1.70;;;22.30;58.90;;;;;;5050633;28;20542;-64
2023/11/02 11:49:41;;;;;;;2.10;1.10;;;22.30;58.90;;;;;;5055486;28;20493;-65
2023/11/02 11:52:24;;;;;;;2.97;1.60;;;22.30;58.90;;;;;;5054898;28;20500;-67
2023/11/02 11:54:51;;;;;;;4.20;2.30;;;22.30;58.90;;;;;;5055069;28;20569;-64
2023/11/02 11:57:54;;;;;;;2.30;1.50;;;22.30;58.90;;;;;;5055203;28;20754;-63
2023/11/02 12:00:21;;;;;;;2.83;2.20;;;22.30;58.80;;;;;;5051839;28;20404;-64
2023/11/02 12:02:52;;;;;;;3.63;1.60;;;22.30;58.80;;;;;;5051123;28;20772;-64
2023/11/02 12:05:44;;;;;;;2.03;1.33;;;22.30;58.80;;;;;;5051605;28;20873;-64
2023/11/02 12:08:10;;;;;;;3.80;1.80;;;22.30;58.80;;;;;;5051206;28;20508;-63
2023/11/02 12:10:46;;;;;;;2.53;1.40;;;22.30;58.80;;;;;;5050098;28;20413;-64
2023/11/02 12:13:12;;;;;;;1.87;1.57;;;22.30;58.70;;;;;;5051202;28;20465;-63
2023/11/02 12:16:01;;;;;;;4.13;1.87;;;22.30;58.70;;;;;;5051188;28;20425;-65
2023/11/02 12:18:32;;;;;;;2.80;1.40;;;22.30;58.70;;;;;;5051604;28;20436;-64
2023/11/02 12:21:00;;;;;;;3.97;1.60;;;22.30;58.70;;;;;;5051280;28;20432;-64
2023/11/02 12:23:31;;;;;;;4.30;1.93;;;22.30;58.70;;;;;;5052280;28;20989;-64
2023/11/02 12:25:58;;;;;;;2.93;2.30;;;22.30;58.70;;;;;;5051796;28;20885;-64
2023/11/02 12:28:23;;;;;;;1.77;1.30;;;22.30;58.70;;;;;;5050497;28;20417;-64
2023/11/02 12:30:50;;;;;;;2.80;1.57;;;22.30;58.70;;;;;;5051634;28;20401;-64
2023/11/02 12:33:24;;;;;;;5.03;1.67;;;22.30;58.70;;;;;;5051636;28;20336;-64
2023/11/02 12:35:54;;;;;;;2.87;1.80;;;22.30;58.70;;;;;;5051721;28;20475;-63
2023/11/02 12:38:44;;;;;;;3.67;1.93;;;22.30;58.70;;;;;;5052516;28;20416;-64
2023/11/02 12:41:11;;;;;;;3.23;1.80;;;22.30;58.70;;;;;;5051532;28;20452;-63
2023/11/02 12:43:39;;;;;;;3.10;1.50;;;22.30;58.70;;;;;;5052084;28;20406;-64
2023/11/02 12:46:09;;;;;;;4.13;1.60;;;22.30;58.70;;;;;;5051594;28;20437;-64
2023/11/02 12:48:37;;;;;;;2.30;1.73;;;22.30;58.70;;;;;;5051688;28;20410;-64
2023/11/02 12:51:18;;;;;;;1.53;1.40;;;22.30;58.70;;;;;;5051025;28;20413;-63
2023/11/02 12:53:45;;;;;;;3.87;1.90;;;22.30;58.70;;;;;;5051030;28;20448;-64
2023/11/02 12:56:17;;;;;;;2.00;1.40;;;22.30;58.70;;;;;;5051015;28;20426;-64
2023/11/02 12:58:42;;;;;;;1.93;1.70;;;22.30;58.70;;;;;;5050903;28;20455;-63
2023/11/02 13:01:08;;;;;;;6.00;1.87;;;22.30;58.70;;;;;;5050850;28;20410;-62
2023/11/02 13:03:34;;;;;;;2.40;2.20;;;22.30;58.70;;;;;;5050702;28;20239;-65